Terminal Aerodrome Forecast
Issued by NWS

Home | Current Version | Previous Version | Graphics & Text | Print | Product List | Glossary On
Versions: 1 2 3 4 5 6 7 8 9 10 11 12 13 14 15
000
FTUS43 KMPX 010520
TAFRNH
TAF
KRNH 010520Z 0106/0206 00000KT P6SM BKN070
     FM011500 27008KT P6SM SCT100
     FM020100 18005KT P6SM BKN080 PROB30 0202/0206 4SM TSRA
      OVC060CB=

USA.gov is the U.S. government's official web portal to all federal, state and local government web resources and services.